sensor_id;sensor_type;location;lat;lon;timestamp;pressure;altitude;pressure_sealevel;temperature;humidity
50592;BME280;36548;50.506;30.834;2023-03-14T00:00:43;99968.39;;;5.72;57.01
50592;BME280;36548;50.506;30.834;2023-03-14T00:01:52;99971.98;;;5.71;57.05
50592;BME280;36548;50.506;30.834;2023-03-14T00:03:01;99972.06;;;5.70;57.13
50592;BME280;36548;50.506;30.834;2023-03-14T00:04:10;99968.75;;;5.64;57.21
50592;BME280;36548;50.506;30.834;2023-03-14T00:05:22;99959.76;;;5.67;57.18
50592;BME280;36548;50.506;30.834;2023-03-14T00:06:31;99963.23;;;5.69;57.06
50592;BME280;36548;50.506;30.834;2023-03-14T00:07:40;99961.49;;;5.68;57.04
50592;BME280;36548;50.506;30.834;2023-03-14T00:08:50;99956.25;;;5.67;57.15
50592;BME280;36548;50.506;30.834;2023-03-14T00:10:00;99958.83;;;5.68;57.00
50592;BME280;36548;50.506;30.834;2023-03-14T00:12:32;99953.99;;;5.76;57.13
50592;BME280;36548;50.506;30.834;2023-03-14T00:13:42;99952.78;;;5.64;57.14
50592;BME280;36548;50.506;30.834;2023-03-14T00:14:51;99950.11;;;5.64;57.10
50592;BME280;36548;50.506;30.834;2023-03-14T00:16:06;99950.19;;;5.63;57.21
50592;BME280;36548;50.506;30.834;2023-03-14T00:17:23;99953.19;;;5.74;57.40
50592;BME280;36548;50.506;30.834;2023-03-14T00:18:33;99951.05;;;5.63;57.35
50592;BME280;36548;50.506;30.834;2023-03-14T00:19:42;99947.45;;;5.64;57.16
50592;BME280;36548;50.506;30.834;2023-03-14T00:20:51;99949.27;;;5.64;57.12
50592;BME280;36548;50.506;30.834;2023-03-14T00:21:59;99947.53;;;5.63;57.21
50592;BME280;36548;50.506;30.834;2023-03-14T00:23:09;99952.00;;;5.62;57.20
50592;BME280;36548;50.506;30.834;2023-03-14T00:24:18;99948.46;;;5.62;57.51
50592;BME280;36548;50.506;30.834;2023-03-14T00:25:28;99944.87;;;5.63;57.30
50592;BME280;36548;50.506;30.834;2023-03-14T00:26:37;99938.05;;;5.57;57.25
50592;BME280;36548;50.506;30.834;2023-03-14T00:27:50;99938.84;;;5.59;57.39
50592;BME280;36548;50.506;30.834;2023-03-14T00:28:59;99938.77;;;5.61;57.37
50592;BME280;36548;50.506;30.834;2023-03-14T00:30:11;99944.09;;;5.61;57.18
50592;BME280;36548;50.506;30.834;2023-03-14T00:31:21;99942.44;;;5.58;57.42
50592;BME280;36548;50.506;30.834;2023-03-14T00:32:32;99937.04;;;5.60;57.36
50592;BME280;36548;50.506;30.834;2023-03-14T00:33:44;99938.05;;;5.57;57.41
50592;BME280;36548;50.506;30.834;2023-03-14T00:34:53;99931.79;;;5.58;57.28
50592;BME280;36548;50.506;30.834;2023-03-14T00:36:15;99929.61;;;5.67;57.24
50592;BME280;36548;50.506;30.834;2023-03-14T00:37:24;99931.14;;;5.53;57.43
50592;BME280;36548;50.506;30.834;2023-03-14T00:38:33;99931.14;;;5.53;57.49
50592;BME280;36548;50.506;30.834;2023-03-14T00:39:42;99925.09;;;5.50;57.49
50592;BME280;36548;50.506;30.834;2023-03-14T00:40:51;99924.16;;;5.51;57.49
50592;BME280;36548;50.506;30.834;2023-03-14T00:42:03;99923.23;;;5.52;57.44
50592;BME280;36548;50.506;30.834;2023-03-14T00:43:14;99916.17;;;5.51;57.50
50592;BME280;36548;50.506;30.834;2023-03-14T00:44:23;99910.85;;;5.51;57.54
50592;BME280;36548;50.506;30.834;2023-03-14T00:45:34;99909.07;;;5.51;57.52
50592;BME280;36548;50.506;30.834;2023-03-14T00:46:44;99906.45;;;5.50;57.49
50592;BME280;36548;50.506;30.834;2023-03-14T00:47:53;99902.02;;;5.50;57.46
50592;BME280;36548;50.506;30.834;2023-03-14T00:49:02;99900.20;;;5.51;57.36
50592;BME280;36548;50.506;30.834;2023-03-14T00:50:12;99899.88;;;5.39;57.69
50592;BME280;36548;50.506;30.834;2023-03-14T00:51:20;99906.85;;;5.42;57.72
50592;BME280;36548;50.506;30.834;2023-03-14T00:52:36;99905.45;;;5.52;57.78
50592;BME280;36548;50.506;30.834;2023-03-14T00:53:45;99897.94;;;5.43;57.69
50592;BME280;36548;50.506;30.834;2023-03-14T00:54:53;99895.35;;;5.41;57.88
50592;BME280;36548;50.506;30.834;2023-03-14T00:56:07;99888.22;;;5.42;57.78
50592;BME280;36548;50.506;30.834;2023-03-14T00:57:16;99887.41;;;5.40;57.79
50592;BME280;36548;50.506;30.834;2023-03-14T00:58:26;99891.81;;;5.41;57.79
50592;BME280;36548;50.506;30.834;2023-03-14T00:59:36;99892.89;;;5.37;57.95
50592;BME280;36548;50.506;30.834;2023-03-14T01:00:46;99896.28;;;5.40;57.86
50592;BME280;36548;50.506;30.834;2023-03-14T01:01:55;99898.95;;;5.40;57.76
50592;BME280;36548;50.506;30.834;2023-03-14T01:03:06;99895.55;;;5.37;57.78
50592;BME280;36548;50.506;30.834;2023-03-14T01:04:15;99889.46;;;5.35;57.84
50592;BME280;36548;50.506;30.834;2023-03-14T01:05:24;99887.73;;;5.34;57.96
50592;BME280;36548;50.506;30.834;2023-03-14T01:06:33;99880.59;;;5.34;57.97
50592;BME280;36548;50.506;30.834;2023-03-14T01:07:42;99884.14;;;5.35;57.87
50592;BME280;36548;50.506;30.834;2023-03-14T01:08:52;99885.06;;;5.34;57.93
50592;BME280;36548;50.506;30.834;2023-03-14T01:10:01;99883.33;;;5.33;58.06
50592;BME280;36548;50.506;30.834;2023-03-14T01:11:17;99886.92;;;5.32;58.07
50592;BME280;36548;50.506;30.834;2023-03-14T01:12:27;99878.01;;;5.33;58.18
50592;BME280;36548;50.506;30.834;2023-03-14T01:13:43;99873.90;;;5.44;58.06
50592;BME280;36548;50.506;30.834;2023-03-14T01:14:52;99879.74;;;5.34;58.07
50592;BME280;36548;50.506;30.834;2023-03-14T01:16:07;99881.55;;;5.33;58.11
50592;BME280;36548;50.506;30.834;2023-03-14T01:17:18;99884.14;;;5.35;57.90
50592;BME280;36548;50.506;30.834;2023-03-14T01:18:28;99884.22;;;5.33;57.90
50592;BME280;36548;50.506;30.834;2023-03-14T01:19:36;99882.56;;;5.31;58.03
50592;BME280;36548;50.506;30.834;2023-03-14T01:20:46;99878.16;;;5.29;57.99
50592;BME280;36548;50.506;30.834;2023-03-14T01:21:56;99879.09;;;5.28;58.01
50592;BME280;36548;50.506;30.834;2023-03-14T01:23:04;99885.30;;;5.29;58.07
50592;BME280;36548;50.506;30.834;2023-03-14T01:24:14;99883.41;;;5.31;58.02
50592;BME280;36548;50.506;30.834;2023-03-14T01:25:23;99881.67;;;5.30;57.97
50592;BME280;36548;50.506;30.834;2023-03-14T01:26:38;99881.23;;;5.39;57.99
50592;BME280;36548;50.506;30.834;2023-03-14T01:27:48;99887.16;;;5.27;58.11
50592;BME280;36548;50.506;30.834;2023-03-14T01:28:58;99884.42;;;5.28;58.02
50592;BME280;36548;50.506;30.834;2023-03-14T01:30:08;99888.89;;;5.28;58.01
50592;BME280;36548;50.506;30.834;2023-03-14T01:31:25;99886.56;;;5.39;57.95
50592;BME280;36548;50.506;30.834;2023-03-14T01:32:36;99900.62;;;5.24;58.00
50592;BME280;36548;50.506;30.834;2023-03-14T01:33:46;99896.07;;;5.26;58.15
50592;BME280;36548;50.506;30.834;2023-03-14T01:34:55;99899.53;;;5.28;58.16
50592;BME280;36548;50.506;30.834;2023-03-14T01:36:06;99896.80;;;5.29;57.97
50592;BME280;36548;50.506;30.834;2023-03-14T01:37:16;99908.30;;;5.30;58.00
50592;BME280;36548;50.506;30.834;2023-03-14T01:38:34;99892.73;;;5.40;58.08
50592;BME280;36548;50.506;30.834;2023-03-14T01:39:46;99903.05;;;5.28;58.01
50592;BME280;36548;50.506;30.834;2023-03-14T01:40:56;99896.72;;;5.31;57.98
50592;BME280;36548;50.506;30.834;2023-03-14T01:42:12;99896.97;;;5.44;57.88
50592;BME280;36548;50.506;30.834;2023-03-14T01:43:22;99904.63;;;5.33;57.89
50592;BME280;36548;50.506;30.834;2023-03-14T01:44:55;99898.45;;;5.32;57.88
50592;BME280;36548;50.506;30.834;2023-03-14T01:47:19;99893.05;;;5.34;57.69
50592;BME280;36548;50.506;30.834;2023-03-14T01:49:57;99892.61;;;5.43;57.77
50592;BME280;36548;50.506;30.834;2023-03-14T01:51:09;99898.61;;;5.29;57.85
50592;BME280;36548;50.506;30.834;2023-03-14T01:52:38;99896.80;;;5.29;57.69
50592;BME280;36548;50.506;30.834;2023-03-14T01:53:52;99900.39;;;5.28;57.76
50592;BME280;36548;50.506;30.834;2023-03-14T01:55:05;99899.89;;;5.20;58.01
50592;BME280;36548;50.506;30.834;2023-03-14T01:56:22;99895.80;;;5.32;57.98
50592;BME280;36548;50.506;30.834;2023-03-14T01:57:36;99894.57;;;5.20;58.13
50592;BME280;36548;50.506;30.834;2023-03-14T01:58:47;99890.13;;;5.21;58.14
50592;BME280;36548;50.506;30.834;2023-03-14T02:00:11;99887.39;;;5.22;57.92
50592;BME280;36548;50.506;30.834;2023-03-14T02:01:28;99886.87;;;5.33;57.91
50592;BME280;36548;50.506;30.834;2023-03-14T02:02:41;99883.84;;;5.22;57.92
50592;BME280;36548;50.506;30.834;2023-03-14T02:03:53;99881.19;;;5.22;57.84
50592;BME280;36548;50.506;30.834;2023-03-14T02:05:04;99886.51;;;5.22;57.77
50592;BME280;36548;50.506;30.834;2023-03-14T02:06:19;99878.68;;;5.19;57.74
50592;BME280;36548;50.506;30.834;2023-03-14T02:07:48;99880.56;;;5.17;57.99
50592;BME280;36548;50.506;30.834;2023-03-14T02:09:01;99877.02;;;5.16;57.97
50592;BME280;36548;50.506;30.834;2023-03-14T02:10:16;99872.79;;;5.12;58.05
50592;BME280;36548;50.506;30.834;2023-03-14T02:11:28;99871.16;;;5.09;58.08
50592;BME280;36548;50.506;30.834;2023-03-14T02:12:50;99865.89;;;5.08;58.25
50592;BME280;36548;50.506;30.834;2023-03-14T02:14:03;99876.61;;;5.06;58.26
50592;BME280;36548;50.506;30.834;2023-03-14T02:15:16;99871.28;;;5.06;58.30
50592;BME280;36548;50.506;30.834;2023-03-14T02:16:28;99878.41;;;5.06;58.24
50592;BME280;36548;50.506;30.834;2023-03-14T02:17:47;99873.25;;;5.03;58.46
50592;BME280;36548;50.506;30.834;2023-03-14T02:19:02;99872.45;;;5.01;58.52
50592;BME280;36548;50.506;30.834;2023-03-14T02:20:30;99865.69;;;5.12;58.46
50592;BME280;36548;50.506;30.834;2023-03-14T02:21:49;99866.27;;;5.00;58.60
50592;BME280;36548;50.506;30.834;2023-03-14T02:23:01;99874.25;;;5.00;58.57
50592;BME280;36548;50.506;30.834;2023-03-14T02:24:35;99870.79;;;4.98;58.77
50592;BME280;36548;50.506;30.834;2023-03-14T02:25:50;99870.79;;;4.98;58.77
50592;BME280;36548;50.506;30.834;2023-03-14T02:28:35;99870.36;;;5.07;58.67
50592;BME280;36548;50.506;30.834;2023-03-14T02:29:57;99876.19;;;4.97;58.71
50592;BME280;36548;50.506;30.834;2023-03-14T02:31:09;99877.11;;;4.95;58.82
50592;BME280;36548;50.506;30.834;2023-03-14T02:32:20;99883.31;;;4.96;58.74
50592;BME280;36548;50.506;30.834;2023-03-14T02:33:30;99879.00;;;4.93;58.82
50592;BME280;36548;50.506;30.834;2023-03-14T02:34:42;99889.71;;;4.92;58.94
50592;BME280;36548;50.506;30.834;2023-03-14T02:35:59;99884.39;;;4.92;58.97
50592;BME280;36548;50.506;30.834;2023-03-14T02:37:10;99881.73;;;4.92;59.12
50592;BME280;36548;50.506;30.834;2023-03-14T02:38:31;99882.58;;;4.92;59.05
50592;BME280;36548;50.506;30.834;2023-03-14T02:39:44;99875.91;;;4.84;59.34
50592;BME280;36548;50.506;30.834;2023-03-14T02:40:54;99878.41;;;4.87;59.54
50592;BME280;36548;50.506;30.834;2023-03-14T02:42:04;99880.88;;;4.91;59.31
50592;BME280;36548;50.506;30.834;2023-03-14T02:43:20;99887.41;;;5.03;59.15
50592;BME280;36548;50.506;30.834;2023-03-14T02:44:31;99891.37;;;4.94;59.17
50592;BME280;36548;50.506;30.834;2023-03-14T02:45:42;99886.90;;;4.95;59.19
50592;BME280;36548;50.506;30.834;2023-03-14T02:46:56;99881.42;;;4.98;59.08
50592;BME280;36548;50.506;30.834;2023-03-14T02:48:09;99885.75;;;5.01;58.95
50592;BME280;36548;50.506;30.834;2023-03-14T02:49:19;99884.09;;;4.98;58.98
50592;BME280;36548;50.506;30.834;2023-03-14T02:50:31;99882.39;;;4.97;59.02
50592;BME280;36548;50.506;30.834;2023-03-14T02:51:43;99884.09;;;4.98;59.02
50592;BME280;36548;50.506;30.834;2023-03-14T02:52:54;99885.82;;;4.99;58.83
50592;BME280;36548;50.506;30.834;2023-03-14T02:54:04;99881.35;;;5.00;58.85
50592;BME280;36548;50.506;30.834;2023-03-14T02:55:13;99883.16;;;4.99;58.79
50592;BME280;36548;50.506;30.834;2023-03-14T02:56:25;99884.16;;;4.97;58.82
50592;BME280;36548;50.506;30.834;2023-03-14T02:57:35;99886.90;;;4.95;58.95
50592;BME280;36548;50.506;30.834;2023-03-14T02:58:44;99885.16;;;4.94;59.00
50592;BME280;36548;50.506;30.834;2023-03-14T03:00:01;99886.05;;;4.94;59.08
50592;BME280;36548;50.506;30.834;2023-03-14T03:01:18;99884.59;;;5.06;58.98
50592;BME280;36548;50.506;30.834;2023-03-14T03:02:27;99882.39;;;4.97;58.91
50592;BME280;36548;50.506;30.834;2023-03-14T03:03:37;99888.63;;;4.96;58.87
50592;BME280;36548;50.506;30.834;2023-03-14T03:04:46;99892.30;;;4.93;58.98
50592;BME280;36548;50.506;30.834;2023-03-14T03:05:57;99903.78;;;4.94;59.03
50592;BME280;36548;50.506;30.834;2023-03-14T03:07:08;99891.45;;;4.93;59.02
50592;BME280;36548;50.506;30.834;2023-03-14T03:08:19;99882.51;;;4.94;58.90
50592;BME280;36548;50.506;30.834;2023-03-14T03:09:29;99893.07;;;4.95;58.96
50592;BME280;36548;50.506;30.834;2023-03-14T03:10:40;99885.09;;;4.95;58.94
50592;BME280;36548;50.506;30.834;2023-03-14T03:11:50;99874.52;;;4.94;58.85
50592;BME280;36548;50.506;30.834;2023-03-14T03:13:00;99886.97;;;4.93;58.94
50592;BME280;36548;50.506;30.834;2023-03-14T03:14:09;99885.24;;;4.92;58.73
50592;BME280;36548;50.506;30.834;2023-03-14T03:15:19;99882.58;;;4.92;58.68
50592;BME280;36548;50.506;30.834;2023-03-14T03:16:35;99882.23;;;5.00;58.75
50592;BME280;36548;50.506;30.834;2023-03-14T03:17:43;99881.08;;;4.87;58.91
50592;BME280;36548;50.506;30.834;2023-03-14T03:18:53;99880.23;;;4.86;58.86
50592;BME280;36548;50.506;30.834;2023-03-14T03:20:03;99881.08;;;4.87;59.01
50592;BME280;36548;50.506;30.834;2023-03-14T03:21:13;99882.30;;;4.80;58.99
50592;BME280;36548;50.506;30.834;2023-03-14T03:22:23;99881.30;;;4.82;58.98
50592;BME280;36548;50.506;30.834;2023-03-14T03:23:32;99871.36;;;4.86;58.77
50592;BME280;36548;50.506;30.834;2023-03-14T03:24:40;99878.49;;;4.85;58.66
50592;BME280;36548;50.506;30.834;2023-03-14T03:25:50;99879.57;;;4.81;58.73
50592;BME280;36548;50.506;30.834;2023-03-14T03:27:01;99863.69;;;4.80;58.63
50592;BME280;36548;50.506;30.834;2023-03-14T03:28:10;99876.21;;;4.77;58.75
50592;BME280;36548;50.506;30.834;2023-03-14T03:29:20;99861.95;;;4.78;58.80
50592;BME280;36548;50.506;30.834;2023-03-14T03:30:29;99859.52;;;4.74;58.67
50592;BME280;36548;50.506;30.834;2023-03-14T03:31:40;99860.38;;;4.74;58.66
50592;BME280;36548;50.506;30.834;2023-03-14T03:32:50;99862.26;;;4.72;58.75
50592;BME280;36548;50.506;30.834;2023-03-14T03:33:59;99870.23;;;4.72;58.66
50592;BME280;36548;50.506;30.834;2023-03-14T03:35:09;99863.26;;;4.70;58.65
50592;BME280;36548;50.506;30.834;2023-03-14T03:36:24;99863.26;;;4.70;58.66
50592;BME280;36548;50.506;30.834;2023-03-14T03:37:33;99866.14;;;4.65;58.59
50592;BME280;36548;50.506;30.834;2023-03-14T03:38:45;99862.52;;;4.66;58.59
50592;BME280;36548;50.506;30.834;2023-03-14T03:39:56;99856.43;;;4.64;58.39
50592;BME280;36548;50.506;30.834;2023-03-14T03:41:06;99864.82;;;4.55;58.84
50592;BME280;36548;50.506;30.834;2023-03-14T03:42:28;99855.43;;;4.67;58.86
50592;BME280;36548;50.506;30.834;2023-03-14T03:43:37;99852.19;;;4.60;58.78
50592;BME280;36548;50.506;30.834;2023-03-14T03:44:47;99861.23;;;4.56;58.30
50592;BME280;36548;50.506;30.834;2023-03-14T03:45:58;99857.51;;;4.60;58.42
50592;BME280;36548;50.506;30.834;2023-03-14T03:47:07;99849.68;;;4.57;58.33
50592;BME280;36548;50.506;30.834;2023-03-14T03:48:16;99861.09;;;4.59;58.26
50592;BME280;36548;50.506;30.834;2023-03-14T03:49:30;99862.82;;;4.60;58.24
50592;BME280;36548;50.506;30.834;2023-03-14T03:50:45;99858.50;;;4.57;58.17
50592;BME280;36548;50.506;30.834;2023-03-14T03:51:55;99856.58;;;4.61;58.53
50592;BME280;36548;50.506;30.834;2023-03-14T03:53:05;99853.92;;;4.61;57.76
50592;BME280;36548;50.506;30.834;2023-03-14T03:54:13;99866.41;;;4.59;58.16
50592;BME280;36548;50.506;30.834;2023-03-14T03:55:22;99860.94;;;4.62;58.06
50592;BME280;36548;50.506;30.834;2023-03-14T03:56:31;99865.26;;;4.65;58.08
50592;BME280;36548;50.506;30.834;2023-03-14T03:57:41;99855.43;;;4.67;57.98
50592;BME280;36548;50.506;30.834;2023-03-14T03:58:53;99859.58;;;4.53;57.85
50592;BME280;36548;50.506;30.834;2023-03-14T04:00:03;99858.73;;;4.53;57.91
50592;BME280;36548;50.506;30.834;2023-03-14T04:01:16;99851.61;;;4.53;58.09
50592;BME280;36548;50.506;30.834;2023-03-14T04:02:32;99846.65;;;4.65;58.03
50592;BME280;36548;50.506;30.834;2023-03-14T04:03:42;99848.17;;;4.51;57.56
50592;BME280;36548;50.506;30.834;2023-03-14T04:04:52;99854.67;;;4.44;57.68
50592;BME280;36548;50.506;30.834;2023-03-14T04:06:08;99854.34;;;4.52;57.90
50592;BME280;36548;50.506;30.834;2023-03-14T04:07:19;99859.50;;;4.55;57.79
50592;BME280;36548;50.506;30.834;2023-03-14T04:08:28;99855.19;;;4.52;57.68
50592;BME280;36548;50.506;30.834;2023-03-14T04:09:38;99856.92;;;4.53;57.56
50592;BME280;36548;50.506;30.834;2023-03-14T04:10:49;99852.53;;;4.52;57.59
50592;BME280;36548;50.506;30.834;2023-03-14T04:11:59;99849.17;;;4.49;57.60
50592;BME280;36548;50.506;30.834;2023-03-14T04:13:10;99850.83;;;4.51;57.54
50592;BME280;36548;50.506;30.834;2023-03-14T04:14:21;99853.41;;;4.53;57.49
50592;BME280;36548;50.506;30.834;2023-03-14T04:15:32;99854.34;;;4.52;57.24
50592;BME280;36548;50.506;30.834;2023-03-14T04:16:44;99855.27;;;4.51;57.13
50592;BME280;36548;50.506;30.834;2023-03-14T04:17:58;99858.99;;;4.47;57.23
50592;BME280;36548;50.506;30.834;2023-03-14T04:19:07;99860.95;;;4.43;57.43
50592;BME280;36548;50.506;30.834;2023-03-14T04:20:18;99857.33;;;4.44;57.51
50592;BME280;36548;50.506;30.834;2023-03-14T04:21:28;99869.10;;;4.38;57.42
50592;BME280;36548;50.506;30.834;2023-03-14T04:22:39;99862.09;;;4.37;57.58
50592;BME280;36548;50.506;30.834;2023-03-14T04:23:48;99856.63;;;4.40;57.50
50592;BME280;36548;50.506;30.834;2023-03-14T04:24:58;99858.77;;;4.32;57.44
50592;BME280;36548;50.506;30.834;2023-03-14T04:26:08;99861.13;;;4.38;57.84
50592;BME280;36548;50.506;30.834;2023-03-14T04:27:17;99855.74;;;4.40;57.55
50592;BME280;36548;50.506;30.834;2023-03-14T04:28:27;99853.89;;;4.42;57.80
50592;BME280;36548;50.506;30.834;2023-03-14T04:29:37;99860.06;;;4.42;57.79
50592;BME280;36548;50.506;30.834;2023-03-14T04:30:46;99855.92;;;4.56;58.04
50592;BME280;36548;50.506;30.834;2023-03-14T04:31:57;99854.19;;;4.55;57.51
50592;BME280;36548;50.506;30.834;2023-03-14T04:33:06;99857.13;;;4.68;57.56
50592;BME280;36548;50.506;30.834;2023-03-14T04:34:18;99858.09;;;4.67;56.74
50592;BME280;36548;50.506;30.834;2023-03-14T04:35:32;99850.47;;;4.78;57.05
50592;BME280;36548;50.506;30.834;2023-03-14T04:36:44;99850.47;;;4.97;57.40
50592;BME280;36548;50.506;30.834;2023-03-14T04:37:58;99847.14;;;5.11;56.62
50592;BME280;36548;50.506;30.834;2023-03-14T04:39:08;99849.45;;;5.36;56.49
50592;BME280;36548;50.506;30.834;2023-03-14T04:40:21;99852.20;;;5.35;54.87
50592;BME280;36548;50.506;30.834;2023-03-14T04:41:36;99848.38;;;5.75;55.22
50592;BME280;36548;50.506;30.834;2023-03-14T04:42:47;99855.03;;;5.84;55.22
50592;BME280;36548;50.506;30.834;2023-03-14T04:43:56;99847.84;;;6.04;54.53
50592;BME280;36548;50.506;30.834;2023-03-14T04:45:08;99853.24;;;6.20;54.39
50592;BME280;36548;50.506;30.834;2023-03-14T04:46:18;99846.38;;;6.31;53.51
50592;BME280;36548;50.506;30.834;2023-03-14T04:47:28;99843.20;;;6.25;52.96
50592;BME280;36548;50.506;30.834;2023-03-14T04:48:38;99839.91;;;6.20;52.77
50592;BME280;36548;50.506;30.834;2023-03-14T04:49:48;99839.45;;;6.11;51.84
50592;BME280;36548;50.506;30.834;2023-03-14T04:50:58;99838.69;;;6.09;52.84
50592;BME280;36548;50.506;30.834;2023-03-14T04:52:09;99850.88;;;6.13;52.99
50592;BME280;36548;50.506;30.834;2023-03-14T04:53:19;99833.02;;;6.16;52.57
50592;BME280;36548;50.506;30.834;2023-03-14T04:54:30;99828.26;;;6.38;53.01
50592;BME280;36548;50.506;30.834;2023-03-14T04:55:41;99828.83;;;6.61;52.38
50592;BME280;36548;50.506;30.834;2023-03-14T04:56:50;99837.28;;;7.01;52.35
50592;BME280;36548;50.506;30.834;2023-03-14T04:58:00;99830.70;;;7.39;51.42
50592;BME280;36548;50.506;30.834;2023-03-14T04:59:08;99823.35;;;7.73;50.66
50592;BME280;36548;50.506;30.834;2023-03-14T05:00:21;99817.13;;;8.02;49.76
50592;BME280;36548;50.506;30.834;2023-03-14T05:01:46;99822.18;;;8.07;47.45
50592;BME280;36548;50.506;30.834;2023-03-14T05:03:03;99821.25;;;8.66;48.71
50592;BME280;36548;50.506;30.834;2023-03-14T05:04:17;99815.79;;;8.82;47.79
50592;BME280;36548;50.506;30.834;2023-03-14T05:05:33;99809.04;;;9.31;47.29
50592;BME280;36548;50.506;30.834;2023-03-14T05:06:47;99821.97;;;9.51;46.85
50592;BME280;36548;50.506;30.834;2023-03-14T05:07:58;99814.91;;;9.63;45.53
50592;BME280;36548;50.506;30.834;2023-03-14T05:09:19;99803.39;;;10.14;45.02
50592;BME280;36548;50.506;30.834;2023-03-14T05:10:40;99812.92;;;10.31;44.94
50592;BME280;36548;50.506;30.834;2023-03-14T05:11:50;99808.61;;;10.67;44.54
50592;BME280;36548;50.506;30.834;2023-03-14T05:13:04;99812.78;;;10.84;43.02
50592;BME280;36548;50.506;30.834;2023-03-14T05:14:23;99807.72;;;10.93;42.34
50592;BME280;36548;50.506;30.834;2023-03-14T05:15:44;99804.27;;;10.90;42.05
50592;BME280;36548;50.506;30.834;2023-03-14T05:16:57;99803.42;;;10.90;41.67
50592;BME280;36548;50.506;30.834;2023-03-14T05:18:18;99792.56;;;10.91;41.89
50592;BME280;36548;50.506;30.834;2023-03-14T05:19:45;99812.97;;;10.94;41.01
50592;BME280;36548;50.506;30.834;2023-03-14T05:21:01;99807.23;;;10.74;40.38
50592;BME280;36548;50.506;30.834;2023-03-14T05:22:19;99806.81;;;10.68;41.95
50592;BME280;36548;50.506;30.834;2023-03-14T05:23:45;99798.87;;;10.66;41.59
50592;BME280;36548;50.506;30.834;2023-03-14T05:25:12;99798.22;;;10.63;42.30
50592;BME280;36548;50.506;30.834;2023-03-14T05:26:30;99807.84;;;10.78;41.88
50592;BME280;36548;50.506;30.834;2023-03-14T05:27:41;99802.74;;;10.62;41.92
50592;BME280;36548;50.506;30.834;2023-03-14T05:28:55;99811.22;;;10.56;42.16
50592;BME280;36548;50.506;30.834;2023-03-14T05:30:12;99804.47;;;10.50;41.81
50592;BME280;36548;50.506;30.834;2023-03-14T05:31:26;99798.17;;;10.38;41.82
50592;BME280;36548;50.506;30.834;2023-03-14T05:32:39;99808.85;;;10.26;42.14
50592;BME280;36548;50.506;30.834;2023-03-14T05:33:58;99799.53;;;10.18;42.15
50592;BME280;36548;50.506;30.834;2023-03-14T05:35:14;99800.38;;;9.93;42.11
50592;BME280;36548;50.506;30.834;2023-03-14T05:36:29;99818.14;;;9.68;42.88
50592;BME280;36548;50.506;30.834;2023-03-14T05:37:42;99815.24;;;9.31;42.96
50592;BME280;36548;50.506;30.834;2023-03-14T05:39:10;99818.09;;;9.15;43.43
50592;BME280;36548;50.506;30.834;2023-03-14T05:40:20;99820.36;;;8.94;43.91
50592;BME280;36548;50.506;30.834;2023-03-14T05:41:41;99827.34;;;8.82;44.00
50592;BME280;36548;50.506;30.834;2023-03-14T05:43:10;99818.40;;;8.55;44.40
50592;BME280;36548;50.506;30.834;2023-03-14T05:44:39;99829.84;;;8.28;44.76
50592;BME280;36548;50.506;30.834;2023-03-14T05:45:55;99819.41;;;8.09;45.60
50592;BME280;36548;50.506;30.834;2023-03-14T05:47:09;99836.67;;;7.89;46.06
50592;BME280;36548;50.506;30.834;2023-03-14T05:48:26;99836.67;;;7.89;46.59
50592;BME280;36548;50.506;30.834;2023-03-14T05:49:42;99835.98;;;7.85;46.78
50592;BME280;36548;50.506;30.834;2023-03-14T05:50:55;99842.11;;;7.87;46.42
50592;BME280;36548;50.506;30.834;2023-03-14T05:52:19;99840.27;;;7.73;46.82
50592;BME280;36548;50.506;30.834;2023-03-14T05:53:31;99842.53;;;7.65;46.80
50592;BME280;36548;50.506;30.834;2023-03-14T05:54:54;99834.91;;;7.43;47.11
50592;BME280;36548;50.506;30.834;2023-03-14T05:56:08;99852.34;;;7.18;47.58
50592;BME280;36548;50.506;30.834;2023-03-14T05:57:22;99854.39;;;7.13;47.76
50592;BME280;36548;50.506;30.834;2023-03-14T05:58:36;99847.17;;;6.99;48.37
50592;BME280;36548;50.506;30.834;2023-03-14T06:00:00;99858.44;;;6.88;48.66
50592;BME280;36548;50.506;30.834;2023-03-14T06:01:26;99852.07;;;6.91;48.53
50592;BME280;36548;50.506;30.834;2023-03-14T06:02:37;99853.27;;;6.85;48.76
50592;BME280;36548;50.506;30.834;2023-03-14T06:03:52;99854.48;;;6.79;49.10
50592;BME280;36548;50.506;30.834;2023-03-14T06:05:03;99844.16;;;6.73;48.93
50592;BME280;36548;50.506;30.834;2023-03-14T06:06:14;99847.50;;;6.77;48.89
50592;BME280;36548;50.506;30.834;2023-03-14T06:07:26;99852.84;;;6.77;48.93
50592;BME280;36548;50.506;30.834;2023-03-14T06:08:35;99859.11;;;6.76;49.32
50592;BME280;36548;50.506;30.834;2023-03-14T06:09:44;99846.66;;;6.76;49.43
50592;BME280;36548;50.506;30.834;2023-03-14T06:10:56;99861.23;;;6.53;50.14
50592;BME280;36548;50.506;30.834;2023-03-14T06:12:08;99858.93;;;6.63;50.01
50592;BME280;36548;50.506;30.834;2023-03-14T06:13:23;99867.28;;;6.57;50.64
50592;BME280;36548;50.506;30.834;2023-03-14T06:14:32;99871.64;;;6.58;50.55
50592;BME280;36548;50.506;30.834;2023-03-14T06:15:41;99862.45;;;6.63;50.17
50592;BME280;36548;50.506;30.834;2023-03-14T06:16:50;99866.76;;;6.66;50.07
50592;BME280;36548;50.506;30.834;2023-03-14T06:17:59;99877.88;;;6.74;50.11
50592;BME280;36548;50.506;30.834;2023-03-14T06:19:09;99864.61;;;6.57;50.15
50592;BME280;36548;50.506;30.834;2023-03-14T06:20:26;99866.80;;;6.82;50.13
50592;BME280;36548;50.506;30.834;2023-03-14T06:21:36;99878.58;;;6.78;50.09
50592;BME280;36548;50.506;30.834;2023-03-14T06:22:47;99851.55;;;6.68;49.72
50592;BME280;36548;50.506;30.834;2023-03-14T06:23:56;99876.39;;;6.53;50.01
50592;BME280;36548;50.506;30.834;2023-03-14T06:25:12;99870.39;;;6.65;50.58
50592;BME280;36548;50.506;30.834;2023-03-14T06:26:21;99870.66;;;6.76;50.12
50592;BME280;36548;50.506;30.834;2023-03-14T06:27:31;99861.38;;;6.83;50.36
50592;BME280;36548;50.506;30.834;2023-03-14T06:28:41;99860.95;;;6.91;49.97
50592;BME280;36548;50.506;30.834;2023-03-14T06:29:56;99850.36;;;7.06;49.83